WetterOnline ( https://www.wetteronline.de )

Wetter aktuell Alfeld

Aktuelles Wetter: Alfeld (148m)

6-stündlich | Neueste Meldungen
Ortszeit Temperatur Wetter
Di, 11.05. 14:00 14.3° C bedeckt
Di, 11.05. 8:00 14.1° C wolkig
Di, 11.05. 2:00 13.5° C leichter Regen
Mo, 10.05. 20:00 19.9° C leichter Regen
Mo, 10.05. 14:00 24.4° C wolkig
Mo, 10.05. 8:00 16.9° C bedeckt
Mo, 10.05. 2:00 19.1° C wolkig
So, 09.05. 20:00 24.8° C wolkig
Ortszeit Temperatur Wetter
Di, 11.05. 18:30 14.7° C bedeckt
Di, 11.05. 18:20 14.7° C bedeckt
Di, 11.05. 18:10 14.7° C bedeckt
Di, 11.05. 18:00 14.8° C bewölkt
Di, 11.05. 17:50 14.8° C bewölkt
Di, 11.05. 17:40 14.7° C bewölkt
Di, 11.05. 17:30 14.9° C Sprühregen
Di, 11.05. 17:00 15.1° C leichter Regen
Ortszeit Relative Feuchte Sichtweite
Di, 11.05. 14:00 84% 55 km
Di, 11.05. 8:00 98% 14 km
Di, 11.05. 2:00 100% 13 km
Mo, 10.05. 20:00 58% 65 km
Mo, 10.05. 14:00 39% 50 km
Mo, 10.05. 8:00 75% 55 km
Mo, 10.05. 2:00 52% >70 km
So, 09.05. 20:00 42% 55 km
Ortszeit Relative Feuchte Sichtweite
Di, 11.05. 18:30 84% 45 km
Di, 11.05. 18:20 84% -
Di, 11.05. 18:10 84% -
Di, 11.05. 18:00 84% 50 km
Di, 11.05. 17:50 84% -
Di, 11.05. 17:40 84% -
Di, 11.05. 17:30 82% 50 km
Di, 11.05. 17:00 83% 35 km
Ortszeit Niederschlagsmenge Niederschlagsart
Di, 11.05. 14:00 0.1 l/m2 in 6 Std. Regen
Di, 11.05. 8:00 11 l/m2 in 12 Std. Regen
Di, 11.05. 2:00 11 l/m2 in 6 Std. Regen
Mo, 10.05. 20:00 0.1 l/m2 in 12 Std. Regen
Mo, 10.05. 14:00 0.0 l/m2 in 6 Std. -
Mo, 10.05. 8:00 0.0 l/m2 in 12 Std. -
Mo, 10.05. 2:00 0.0 l/m2 in 6 Std. -
So, 09.05. 20:00 0.0 l/m2 in 12 Std. -
Ortszeit Niederschlagsmenge Niederschlagsart
Di, 11.05. 18:30 0.1 l/m2 in 1 Std. Schneeregen
Di, 11.05. 18:20 keine Meldung -
Di, 11.05. 18:10 keine Meldung -
Di, 11.05. 18:00 0.1 l/m2 in 1 Std. Regen
Di, 11.05. 17:50 keine Meldung -
Di, 11.05. 17:40 keine Meldung -
Di, 11.05. 17:30 0.1 l/m2 in 1 Std. -
Di, 11.05. 17:00 0.1 l/m2 in 1 Std. Regen
Ortszeit Stärke Spitze Richtung
km/h Bft. km/h Grad Sektor
Di, 11.05. 14:00 9 2 24 340° N
Di, 11.05. 8:00 13 3 22 330° NW
Di, 11.05. 2:00 6 1 19 130° SO
Mo, 10.05. 20:00 7 2 47 240° SW
Mo, 10.05. 14:00 22 4 43 240° SW
Mo, 10.05. 8:00 9 2 19 140° SO
Mo, 10.05. 2:00 11 2 43 170° S
So, 09.05. 20:00 22 4 52 150° SO
Ortszeit Stärke Spitze Richtung
km/h Bft. km/h Grad Sektor
Di, 11.05. 18:30 9 2 13 320° NW
Di, 11.05. 18:20 9 2 - 320° NW
Di, 11.05. 18:10 7 2 - 330° NW
Di, 11.05. 18:00 7 2 14 330° NW
Di, 11.05. 17:50 7 2 - 330° NW
Di, 11.05. 17:40 7 2 - 320° NW
Di, 11.05. 17:30 7 2 15 320° NW
Di, 11.05. 17:00 7 2 14 330° NW
Ortszeit Untergrenze Bedeckung Gattung
total tief tief mittel hoch
Di, 11.05. 14:00 450 m 8/8 8/8 - - -
Di, 11.05. 8:00 150 m 8/8 2/8 - - -
Di, 11.05. 2:00 1470 m 8/8 7/8 - - -
Mo, 10.05. 20:00 2700 m 7/8 7/8 - - -
Mo, 10.05. 14:00 2700 m 7/8 2/8 - - -
Mo, 10.05. 8:00 3600 m 8/8 8/8 - - -
Mo, 10.05. 2:00 2700 m 7/8 2/8 - - -
So, 09.05. 20:00 9000 m 7/8 0/8 - - -
Ortszeit Bedeckungsgrad in Achtel und Wolkenuntergrenze
Di, 11.05. 18:30 8(510m)
Di, 11.05. 18:20 8(510m)
Di, 11.05. 18:10 8(510m)
Di, 11.05. 18:00 7(540m)
Di, 11.05. 17:50 7(540m)
Di, 11.05. 17:40 7(540m)
Di, 11.05. 17:30 8(540m)
Di, 11.05. 17:00 8(540m)
Ortszeit Luftdruck NN (hPa) Tendenz (hPa in 3 Std.)
Di, 11.05. 14:00 1007 - 0,1
Di, 11.05. 8:00 1008 - 1,2
Di, 11.05. 2:00 1010 - 0,4
Mo, 10.05. 20:00 1009 + 1,1
Mo, 10.05. 14:00 1005 + 0,7
Mo, 10.05. 8:00 1003 - 0,8
Mo, 10.05. 2:00 1004 0,0
So, 09.05. 20:00 1003 - 0,8
Ortszeit Luftdruck NN (hPa) Tendenz (hPa in 3 Std.)
Di, 11.05. 18:30 1007 - 0,3
Di, 11.05. 18:20 1007 keine Meldung
Di, 11.05. 18:10 1007 keine Meldung
Di, 11.05. 18:00 1008 - 0,2
Di, 11.05. 17:50 1008 keine Meldung
Di, 11.05. 17:40 1008 keine Meldung
Di, 11.05. 17:30 1007 - 0,1
Di, 11.05. 17:00 1007 0,0
Ortszeit Schneehöhe (cm)
Di, 11.05. 14:00 0
Di, 11.05. 8:00 0
Di, 11.05. 2:00 0
Mo, 10.05. 20:00 0
Mo, 10.05. 14:00 0
Mo, 10.05. 8:00 0
Mo, 10.05. 2:00 0
So, 09.05. 20:00 0
Ortszeit Schneehöhe (cm)
Di, 11.05. 18:30 0
Di, 11.05. 18:20 0
Di, 11.05. 18:10 0
Di, 11.05. 18:00 0
Di, 11.05. 17:50 0
Di, 11.05. 17:40 0
Di, 11.05. 17:30 0
Di, 11.05. 17:00 0
Link zu dieser Seite / Seite empfehlen

Das Wetter in ...